createdAt,value
2022-09-28T00:00:04.101Z,96917.66
2022-09-28T00:03:06.873Z,96906.84
2022-09-28T00:06:12.233Z,96896.06
2022-09-28T00:09:15.207Z,96887.88
2022-09-28T00:12:19.152Z,96883.28
2022-09-28T00:15:21.943Z,96869.25
2022-09-28T00:18:24.712Z,96861.44
2022-09-28T00:21:29.056Z,96867.66
2022-09-28T00:24:31.591Z,96857.47
2022-09-28T00:27:35.527Z,96850.38
2022-09-28T00:30:38.173Z,96845.28
2022-09-28T00:33:41.940Z,96841.41
2022-09-28T00:36:46.699Z,96836.13
2022-09-28T00:39:49.510Z,96823.72
2022-09-28T00:42:53.567Z,96820.66
2022-09-28T00:45:59.931Z,96813.19
2022-09-28T00:49:04.573Z,96794.50
2022-09-28T00:52:09.421Z,96796.41
2022-09-28T00:55:16.354Z,96792.56
2022-09-28T00:58:22.542Z,96774.63
2022-09-28T01:01:25.089Z,96764.53
2022-09-28T01:04:30.003Z,96754.84
2022-09-28T01:07:33.176Z,96760.44
2022-09-28T01:10:35.820Z,96751.13
2022-09-28T01:13:40.863Z,96745.25
2022-09-28T01:16:48.027Z,96733.34
2022-09-28T01:20:14.322Z,96730.25
2022-09-28T01:23:33.690Z,96722.59
2022-09-28T01:26:46.834Z,96722.81
2022-09-28T01:29:56.274Z,96724.34
2022-09-28T01:33:04.052Z,96706.47
2022-09-28T01:36:12.011Z,96704.63
2022-09-28T01:39:17.906Z,96700.81
2022-09-28T01:42:25.012Z,96695.78
2022-09-28T01:45:31.193Z,96690.06
2022-09-28T01:48:37.222Z,96681.13
2022-09-28T01:51:42.664Z,96669.53
2022-09-28T01:54:47.417Z,96669.28
2022-09-28T01:57:53.872Z,96658.88
2022-09-28T02:01:00.837Z,96656.63
2022-09-28T02:04:05.989Z,96653.63
2022-09-28T02:07:11.283Z,96650.63
2022-09-28T02:10:16.966Z,96648.41
2022-09-28T02:13:24.886Z,96638.66
2022-09-28T02:16:32.709Z,96635.94
2022-09-28T02:19:36.667Z,96630.91
2022-09-28T02:22:43.685Z,96626.59
2022-09-28T02:25:49.831Z,96625.91
2022-09-28T02:28:53.920Z,96626.09
2022-09-28T02:31:56.785Z,96623.84
2022-09-28T02:34:59.486Z,96607.53
2022-09-28T02:38:02.588Z,96605.31
2022-09-28T02:41:08.284Z,96604.63
2022-09-28T02:44:22.899Z,96598.78
2022-09-28T02:47:33.090Z,96601.41
2022-09-28T02:50:40.707Z,96598.28
2022-09-28T02:54:07.541Z,96603.78
2022-09-28T02:57:21.754Z,96590.44
2022-09-28T03:00:25.900Z,96590.38
2022-09-28T03:03:34.913Z,96575.81
2022-09-28T03:06:42.461Z,96576.38
2022-09-28T03:09:48.509Z,96589.22
2022-09-28T03:12:51.674Z,96586.06
2022-09-28T03:16:08.519Z,96580.66
2022-09-28T03:19:12.071Z,96574.06
2022-09-28T03:22:14.641Z,96575.09
2022-09-28T03:25:17.423Z,96577.47
2022-09-28T03:28:21.339Z,96574.69
2022-09-28T03:31:25.407Z,96566.88
2022-09-28T03:34:28.111Z,96580.94
2022-09-28T03:37:30.707Z,96566.91
2022-09-28T03:40:33.405Z,96573.53
2022-09-28T03:43:36.169Z,96572.75
2022-09-28T03:46:40.073Z,96578.13
2022-09-28T03:49:42.786Z,96573.69
2022-09-28T03:52:45.380Z,96578.38
2022-09-28T03:55:48.017Z,96578.06
2022-09-28T03:58:50.700Z,96596.66
2022-09-28T04:01:54.983Z,96607.03
2022-09-28T04:04:57.842Z,96613.34
2022-09-28T04:08:00.552Z,96609.03
2022-09-28T04:11:03.670Z,96611.44
2022-09-28T04:14:07.333Z,96621.19
2022-09-28T04:17:11.367Z,96613.47
2022-09-28T04:20:14.034Z,96612.31
2022-09-28T04:23:16.946Z,96614.94
2022-09-28T04:26:21.435Z,96615.00
2022-09-28T04:29:23.425Z,96614.28
2022-09-28T04:32:27.412Z,96617.78
2022-09-28T04:35:29.988Z,96620.31
2022-09-28T04:38:51.978Z,96607.72
2022-09-28T04:41:56.006Z,96612.81
2022-09-28T04:44:59.040Z,96618.25
2022-09-28T04:48:03.414Z,96623.06
2022-09-28T04:51:06.184Z,96620.66
2022-09-28T04:54:08.817Z,96629.41
2022-09-28T04:57:11.492Z,96620.88
2022-09-28T05:00:15.239Z,96625.13
2022-09-28T05:03:19.154Z,96630.44
2022-09-28T05:06:22.684Z,96629.94
2022-09-28T05:09:25.400Z,96616.66
2022-09-28T05:12:28.127Z,96631.44
2022-09-28T05:15:31.028Z,96623.72
2022-09-28T05:18:35.058Z,96616.81
2022-09-28T05:21:37.765Z,96625.28
2022-09-28T05:24:40.419Z,96628.72
2022-09-28T05:27:43.114Z,96639.59
2022-09-28T05:30:45.716Z,96642.41
2022-09-28T05:33:49.719Z,96635.44
2022-09-28T05:36:52.576Z,96633.88
2022-09-28T05:39:55.424Z,96636.16
2022-09-28T05:43:00.816Z,96631.56
2022-09-28T05:46:03.516Z,96640.22
2022-09-28T05:49:07.570Z,96640.06
2022-09-28T05:52:10.218Z,96641.91
2022-09-28T05:55:12.840Z,96654.09
2022-09-28T05:58:15.466Z,96645.63
2022-09-28T06:01:18.028Z,96650.22
2022-09-28T06:04:22.589Z,96658.78
2022-09-28T06:07:25.517Z,96654.88
2022-09-28T06:10:29.655Z,96659.66
2022-09-28T06:13:32.416Z,96655.50
2022-09-28T06:16:38.253Z,96652.34
2022-09-28T06:19:46.024Z,96656.28
2022-09-28T06:22:52.294Z,96661.06
2022-09-28T06:25:55.223Z,96666.22
2022-09-28T06:28:57.922Z,96661.56
2022-09-28T06:32:01.275Z,96662.44
2022-09-28T06:35:05.955Z,96676.34
2022-09-28T06:38:08.797Z,96674.72
2022-09-28T06:41:12.246Z,96679.41
2022-09-28T06:44:15.478Z,96682.91
2022-09-28T06:47:18.209Z,96688.44
2022-09-28T06:50:22.516Z,96689.75
2022-09-28T06:53:25.165Z,96692.00
2022-09-28T06:56:32.589Z,96690.53
2022-09-28T06:59:35.800Z,96702.88
2022-09-28T07:02:38.528Z,96710.38
2022-09-28T07:05:44.773Z,96719.50
2022-09-28T07:08:54.378Z,96734.03
2022-09-28T07:12:10.788Z,96734.75
2022-09-28T07:15:13.383Z,96737.25
2022-09-28T07:18:16.922Z,96741.50
2022-09-28T07:21:29.211Z,96752.75
2022-09-28T07:24:32.646Z,96753.50
2022-09-28T07:27:37.144Z,96748.66
2022-09-28T07:30:39.895Z,96745.91
2022-09-28T07:33:42.715Z,96749.66
2022-09-28T07:36:46.673Z,96764.25
2022-09-28T07:40:06.860Z,96755.81
2022-09-28T07:43:09.572Z,96771.53
2022-09-28T07:46:13.098Z,96778.16
2022-09-28T07:49:16.783Z,96777.56
2022-09-28T07:52:21.518Z,96782.25
2022-09-28T07:55:24.209Z,96774.75
2022-09-28T07:58:26.825Z,96783.50
2022-09-28T08:01:30.575Z,96787.78
2022-09-28T08:04:33.469Z,96785.03
2022-09-28T08:07:38.304Z,96793.41
2022-09-28T08:10:46.531Z,96786.00
2022-09-28T08:13:50.894Z,96802.94
2022-09-28T08:16:53.644Z,96810.59
2022-09-28T08:20:14.211Z,96815.44
2022-09-28T08:23:18.603Z,96812.44
2022-09-28T08:26:21.752Z,96820.41
2022-09-28T08:29:24.429Z,96815.16
2022-09-28T08:32:26.963Z,96820.47
2022-09-28T08:35:29.658Z,96827.91
2022-09-28T08:38:34.774Z,96826.91
2022-09-28T08:41:44.300Z,96826.13
2022-09-28T08:44:49.696Z,96830.41
2022-09-28T08:48:13.071Z,96837.50
2022-09-28T08:51:19.880Z,96839.47
2022-09-28T08:54:32.654Z,96848.19
2022-09-28T08:57:41.990Z,96848.03
2022-09-28T09:00:48.630Z,96845.91
2022-09-28T09:03:52.644Z,96867.75
2022-09-28T09:07:11.172Z,96855.56
2022-09-28T09:10:37.233Z,96850.47
2022-09-28T09:13:55.146Z,96861.06
2022-09-28T09:17:05.620Z,96857.94
2022-09-28T09:20:19.429Z,96861.38
2022-09-28T09:23:25.209Z,96866.88
2022-09-28T09:26:36.515Z,96866.09
2022-09-28T09:29:50.210Z,96873.13
2022-09-28T09:33:11.926Z,96887.38
2022-09-28T09:36:28.097Z,96888.59
2022-09-28T09:39:40.401Z,96875.22
2022-09-28T09:42:55.523Z,96886.31
2022-09-28T09:46:10.318Z,96888.63
2022-09-28T09:49:17.875Z,96897.28
2022-09-28T09:52:24.593Z,96886.22
2022-09-28T09:55:30.515Z,96902.03
2022-09-28T09:58:37.439Z,96899.69
2022-09-28T10:01:42.226Z,96899.81
2022-09-28T10:04:46.939Z,96899.16
2022-09-28T10:07:54.184Z,96893.31
2022-09-28T10:11:07.567Z,96898.41
2022-09-28T10:14:15.196Z,96903.13
2022-09-28T10:17:20.126Z,96896.06
2022-09-28T10:20:23.099Z,96894.88
2022-09-28T10:23:27.838Z,96892.69
2022-09-28T10:26:34.508Z,96888.91
2022-09-28T10:29:46.414Z,96889.75
2022-09-28T10:32:49.828Z,96888.19
2022-09-28T10:35:52.592Z,96888.16
2022-09-28T10:38:55.882Z,96888.84
2022-09-28T10:42:00.371Z,96901.25
2022-09-28T10:45:08.270Z,96893.97
2022-09-28T10:48:17.887Z,96892.13
2022-09-28T10:51:20.880Z,96905.47
2022-09-28T10:54:25.146Z,96903.50
2022-09-28T10:57:29.260Z,96899.59
2022-09-28T11:00:40.113Z,96901.53
2022-09-28T11:03:51.230Z,96893.75
2022-09-28T11:06:54.522Z,96897.25
2022-09-28T11:09:58.476Z,96895.25
2022-09-28T11:13:01.284Z,96894.06
2022-09-28T11:16:05.514Z,96896.00
2022-09-28T11:19:28.314Z,96891.25
2022-09-28T11:22:41.728Z,96891.72
2022-09-28T11:25:45.286Z,96892.44
2022-09-28T11:28:47.697Z,96888.88
2022-09-28T11:31:51.630Z,96890.94
2022-09-28T11:34:59.862Z,96889.78
2022-09-28T11:38:12.262Z,96880.34
2022-09-28T11:41:28.432Z,96873.66
2022-09-28T11:44:38.726Z,96873.22
2022-09-28T11:47:50.908Z,96872.78
2022-09-28T11:50:55.786Z,96872.19
2022-09-28T11:54:01.715Z,96876.41
2022-09-28T11:57:06.152Z,96878.78
2022-09-28T12:00:14.986Z,96870.13
2022-09-28T12:03:23.077Z,96876.03
2022-09-28T12:06:30.599Z,96871.69
2022-09-28T12:09:37.032Z,96871.06
2022-09-28T12:12:42.881Z,96875.75
2022-09-28T12:16:13.298Z,96873.19
2022-09-28T12:19:17.943Z,96877.53
2022-09-28T12:22:24.370Z,96877.69
2022-09-28T12:25:28.996Z,96878.44
2022-09-28T12:28:36.009Z,96877.63
2022-09-28T12:31:40.283Z,96873.25
2022-09-28T12:34:44.594Z,96874.84
2022-09-28T12:37:59.569Z,96858.06
2022-09-28T12:41:06.881Z,96860.50
2022-09-28T12:44:42.512Z,96855.25
2022-09-28T12:48:11.702Z,96861.75
2022-09-28T12:51:28.980Z,96857.50
2022-09-28T12:54:54.258Z,96855.50
2022-09-28T12:58:00.458Z,96863.28
2022-09-28T13:01:11.056Z,96864.09
2022-09-28T13:04:31.178Z,96871.59
2022-09-28T13:07:40.261Z,96873.03
2022-09-28T13:10:49.019Z,96862.75
2022-09-28T13:13:57.466Z,96861.84
2022-09-28T13:17:04.551Z,96864.53
2022-09-28T13:20:16.119Z,96870.06
2022-09-28T13:23:22.634Z,96858.69
2022-09-28T13:26:28.163Z,96858.84
2022-09-28T13:29:32.037Z,96853.19
2022-09-28T13:32:35.928Z,96857.09
2022-09-28T13:35:43.067Z,96862.84
2022-09-28T13:38:52.138Z,96862.47
2022-09-28T13:41:55.978Z,96859.97
2022-09-28T13:45:35.100Z,96860.53
2022-09-28T13:48:46.144Z,96863.03
2022-09-28T13:52:02.758Z,96864.75
2022-09-28T13:55:19.173Z,96865.38
2022-09-28T13:58:25.401Z,96860.56
2022-09-28T14:01:31.596Z,96868.19
2022-09-28T14:04:53.210Z,96872.00
2022-09-28T14:07:58.334Z,96877.13
2022-09-28T14:11:40.156Z,96872.97
2022-09-28T14:14:50.152Z,96873.97
2022-09-28T14:17:59.299Z,96874.31
2022-09-28T14:21:31.259Z,96876.78
2022-09-28T14:24:57.819Z,96882.75
2022-09-28T14:28:02.580Z,96882.25
2022-09-28T14:31:11.284Z,96885.84
2022-09-28T14:34:34.175Z,96883.47
2022-09-28T14:37:56.813Z,96888.44
2022-09-28T14:41:16.236Z,96887.34
2022-09-28T14:44:18.917Z,96887.81
2022-09-28T14:47:34.999Z,96897.34
2022-09-28T14:50:37.615Z,96891.91
2022-09-28T14:53:40.336Z,96895.94
2022-09-28T14:56:45.880Z,96889.31
2022-09-28T14:59:48.706Z,96888.16
2022-09-28T15:02:55.331Z,96891.00
2022-09-28T15:05:58.603Z,96897.78
2022-09-28T15:09:01.220Z,96891.56
2022-09-28T15:12:07.455Z,96893.19
2022-09-28T15:15:28.227Z,96900.75
2022-09-28T15:18:43.881Z,96893.66
2022-09-28T15:21:48.654Z,96894.69
2022-09-28T15:25:00.018Z,96886.88
2022-09-28T15:28:17.488Z,96879.28
2022-09-28T15:31:22.099Z,96891.28
2022-09-28T15:34:48.446Z,96890.25
2022-09-28T15:37:51.978Z,96896.41
2022-09-28T15:40:55.273Z,96888.44
2022-09-28T15:44:13.036Z,96902.88
2022-09-28T15:47:20.945Z,96905.41
2022-09-28T15:50:27.874Z,96902.22
2022-09-28T15:53:31.295Z,96914.41
2022-09-28T15:56:33.872Z,96912.34
2022-09-28T15:59:38.287Z,96908.56
2022-09-28T16:03:00.278Z,96921.97
2022-09-28T16:06:09.550Z,96906.69
2022-09-28T16:09:40.242Z,96916.69
2022-09-28T16:12:48.101Z,96913.94
2022-09-28T16:15:57.994Z,96907.47
2022-09-28T16:19:03.103Z,96910.59
2022-09-28T16:22:09.314Z,96910.53
2022-09-28T16:25:17.783Z,96904.63
2022-09-28T16:28:32.460Z,96910.03
2022-09-28T16:31:41.318Z,96911.56
2022-09-28T16:34:44.375Z,96913.09
2022-09-28T16:37:49.505Z,96916.06
2022-09-28T16:40:53.820Z,96923.75
2022-09-28T16:44:00.956Z,96917.75
2022-09-28T16:47:03.602Z,96913.28
2022-09-28T16:50:07.009Z,96916.97
2022-09-28T16:53:33.216Z,96921.00
2022-09-28T16:56:36.985Z,96922.97
2022-09-28T16:59:39.772Z,96926.97
2022-09-28T17:02:46.746Z,96930.56
2022-09-28T17:05:50.818Z,96933.66
2022-09-28T17:08:58.376Z,96924.97
2022-09-28T17:12:01.139Z,96943.88
2022-09-28T17:15:04.187Z,96941.63
2022-09-28T17:18:07.089Z,96940.56
2022-09-28T17:21:13.179Z,96949.56
2022-09-28T17:24:17.436Z,96949.72
2022-09-28T17:27:21.021Z,96946.94
2022-09-28T17:30:25.797Z,96957.19
2022-09-28T17:33:29.705Z,96946.16
2022-09-28T17:36:32.544Z,96958.25
2022-09-28T17:39:37.843Z,96962.31
2022-09-28T17:42:40.407Z,96954.69
2022-09-28T17:45:46.338Z,96960.50
2022-09-28T17:48:49.180Z,96968.16
2022-09-28T17:51:52.970Z,96972.75
2022-09-28T17:54:57.031Z,96969.13
2022-09-28T17:58:01.013Z,96977.25
2022-09-28T18:01:03.673Z,96981.97
2022-09-28T18:04:08.090Z,96985.75
2022-09-28T18:07:10.704Z,96984.06
2022-09-28T18:10:16.667Z,96987.22
2022-09-28T18:13:19.305Z,96987.81
2022-09-28T18:16:22.703Z,96986.63
2022-09-28T18:19:28.577Z,96992.25
2022-09-28T18:22:34.588Z,97007.09
2022-09-28T18:25:41.593Z,97009.38
2022-09-28T18:28:44.291Z,97008.66
2022-09-28T18:31:48.853Z,97015.38
2022-09-28T18:34:51.565Z,97012.38
2022-09-28T18:37:54.550Z,97014.50
2022-09-28T18:40:58.752Z,97019.31
2022-09-28T18:44:01.701Z,97023.44
2022-09-28T18:47:04.512Z,97019.84
2022-09-28T18:50:08.356Z,97032.06
2022-09-28T18:53:14.094Z,97035.22
2022-09-28T18:56:19.247Z,97033.03
2022-09-28T18:59:21.991Z,97034.59
2022-09-28T19:02:24.818Z,97039.69
2022-09-28T19:05:28.705Z,97042.09
2022-09-28T19:08:31.356Z,97056.34
2022-09-28T19:11:35.430Z,97048.84
2022-09-28T19:14:38.722Z,97047.69
2022-09-28T19:17:42.456Z,97037.69
2022-09-28T19:20:45.205Z,97047.69
2022-09-28T19:23:49.688Z,97043.03
2022-09-28T19:26:54.466Z,97056.84
2022-09-28T19:29:57.236Z,97057.00
2022-09-28T19:33:00.037Z,97053.41
2022-09-28T19:36:04.489Z,97059.28
2022-09-28T19:39:07.721Z,97063.84
2022-09-28T19:42:11.807Z,97065.47
2022-09-28T19:45:14.534Z,97070.38
2022-09-28T19:48:17.190Z,97064.47
2022-09-28T19:51:20.023Z,97068.34
2022-09-28T19:54:25.440Z,97072.81
2022-09-28T19:57:31.681Z,97075.59
2022-09-28T20:00:34.418Z,97071.84
2022-09-28T20:03:38.566Z,97077.91
2022-09-28T20:06:41.904Z,97082.66
2022-09-28T20:09:44.613Z,97088.91
2022-09-28T20:12:48.670Z,97086.50
2022-09-28T20:15:51.336Z,97086.44
2022-09-28T20:18:58.393Z,97088.78
2022-09-28T20:22:02.531Z,97089.22
2022-09-28T20:25:05.550Z,97089.50
2022-09-28T20:28:09.673Z,97094.06
2022-09-28T20:31:14.228Z,97091.56
2022-09-28T20:34:16.988Z,97091.50
2022-09-28T20:37:19.664Z,97097.22
2022-09-28T20:40:22.781Z,97095.63
2022-09-28T20:43:27.033Z,97091.03
2022-09-28T20:46:30.176Z,97096.91
2022-09-28T20:49:33.007Z,97097.94
2022-09-28T20:52:35.638Z,97098.28
2022-09-28T20:55:38.254Z,97102.28
2022-09-28T20:58:42.179Z,97100.34
2022-09-28T21:01:45.182Z,97099.44
2022-09-28T21:04:48.327Z,97103.31
2022-09-28T21:07:51.021Z,97092.78
2022-09-28T21:10:54.502Z,97091.50
2022-09-28T21:14:00.427Z,97099.00
2022-09-28T21:17:03.011Z,97094.88
2022-09-28T21:20:06.628Z,97098.66
2022-09-28T21:23:09.249Z,97097.97
2022-09-28T21:26:13.292Z,97092.41
2022-09-28T21:29:17.305Z,97099.13
2022-09-28T21:32:19.913Z,97090.22
2022-09-28T21:35:22.704Z,97093.22
2022-09-28T21:38:25.376Z,97086.00
2022-09-28T21:41:29.157Z,97094.19
2022-09-28T21:44:33.091Z,97086.78
2022-09-28T21:47:35.740Z,97093.63
2022-09-28T21:50:38.426Z,97096.72
2022-09-28T21:53:41.161Z,97088.00
2022-09-28T21:56:43.914Z,97094.34
2022-09-28T21:59:48.249Z,97084.84
2022-09-28T22:02:51.252Z,97088.41
2022-09-28T22:05:54.018Z,97087.00
2022-09-28T22:08:56.917Z,97080.09
2022-09-28T22:11:59.589Z,97081.16
2022-09-28T22:15:03.681Z,97078.66
2022-09-28T22:18:06.475Z,97082.09
2022-09-28T22:21:11.220Z,97090.25
2022-09-28T22:24:14.016Z,97084.38
2022-09-28T22:27:16.791Z,97083.91
2022-09-28T22:30:21.040Z,97090.69
2022-09-28T22:33:24.401Z,97092.75
2022-09-28T22:36:27.515Z,97087.75
2022-09-28T22:39:34.206Z,97085.81
2022-09-28T22:42:39.497Z,97089.22
2022-09-28T22:45:43.619Z,97086.94
2022-09-28T22:48:48.065Z,97087.38
2022-09-28T22:51:50.820Z,97086.13
2022-09-28T22:54:53.936Z,97078.41
2022-09-28T22:57:56.812Z,97077.97
2022-09-28T23:01:08.180Z,97084.16
2022-09-28T23:04:10.940Z,97085.84
2022-09-28T23:07:13.593Z,97082.66
2022-09-28T23:10:16.447Z,97093.72
2022-09-28T23:13:19.261Z,97085.91
2022-09-28T23:16:25.601Z,97088.78
2022-09-28T23:19:28.414Z,97090.09
2022-09-28T23:22:31.298Z,97091.44
2022-09-28T23:25:33.906Z,97091.97
2022-09-28T23:28:36.567Z,97091.88
2022-09-28T23:31:40.635Z,97092.69
2022-09-28T23:34:43.537Z,97091.00
2022-09-28T23:37:50.578Z,97092.06
2022-09-28T23:40:53.390Z,97096.34
2022-09-28T23:43:56.156Z,97083.13
2022-09-28T23:47:00.232Z,97087.75
2022-09-28T23:50:02.932Z,97085.38
2022-09-28T23:53:06.604Z,97084.97
2022-09-28T23:56:09.050Z,97086.13
2022-09-28T23:59:11.762Z,97086.72
